Terminal Aerodrome Forecast
Issued by NWS

Home | Current Version | Previous Version | Text Only | Print | Product List | Glossary On
Versions: 1 2 3 4 5 6 7 8 9 10 11 12 13 14 15 16
000
FTUS43 KLSX 211728
TAFCPS
TAF
KCPS 211728Z 2118/2218 18013KT P6SM OVC150
     FM220700 17012KT 5SM SHRA VCTS BKN060CB
     FM221100 18009KT P6SM SHRA VCTS OVC025CB
     FM221300 22006KT P6SM SHRA OVC015
     FM221600 28006KT P6SM SHRA OVC015=

USA.gov is the U.S. government's official web portal to all federal, state and local government web resources and services.